Time;durP1;ratioP1;P1;durP2;ratioP2;P2;SDS_P1;SDS_P2;PMS_P1;PMS_P2;Temp;Humidity;BMP_temperature;BMP_pressure;BME280_temperature;BME280_humidity;BME280_pressure;Samples;Min_cycle;Max_cycle;Signal;HPM_P1;HPM_P2
2020/12/05 17:54:05;;;;;;;33.53;17.75;;;4.20;99.90;;;;;;5935431;23;20046;-88
2020/12/05 17:56:32;;;;;;;29.92;15.95;;;4.20;99.90;;;;;;5000226;28;20078;-90
2020/12/05 17:58:59;;;;;;;29.73;16.77;;;4.30;99.90;;;;;;5009994;28;20419;-87
2020/12/05 18:01:26;;;;;;;31.17;18.05;;;4.30;99.90;;;;;;5009300;28;20092;-88
2020/12/05 18:03:53;;;;;;;29.90;16.95;;;4.40;99.90;;;;;;5012213;28;20100;-87
2020/12/05 18:06:19;;;;;;;30.02;16.75;;;4.40;99.90;;;;;;5017099;28;20066;-87
2020/12/05 18:08:46;;;;;;;28.88;17.10;;;4.50;99.90;;;;;;5017993;28;20160;-89
2020/12/05 18:16:25;;;;;;;29.55;17.10;;;4.60;99.90;;;;;;6002434;23;20025;-83
2020/12/05 18:18:52;;;;;;;29.38;17.13;;;4.70;99.90;;;;;;5029492;28;20041;-82
2020/12/05 18:21:20;;;;;;;29.85;17.50;;;4.70;99.90;;;;;;5033690;28;20061;-83
2020/12/05 18:26:23;;;;;;;27.10;16.67;;;4.60;99.90;;;;;;5028337;23;20056;-82
2020/12/05 18:28:50;;;;;;;27.50;16.15;;;4.60;99.90;;;;;;5033643;28;20065;-82
2020/12/05 18:31:17;;;;;;;27.52;15.45;;;4.60;99.90;;;;;;5033268;28;20057;-83
2020/12/05 18:33:45;;;;;;;25.40;14.95;;;4.40;99.90;;;;;;5034954;28;20034;-82
2020/12/05 18:36:13;;;;;;;25.38;14.77;;;4.10;99.90;;;;;;5027023;28;20097;-79
2020/12/05 18:38:40;;;;;;;25.65;14.80;;;4.20;99.90;;;;;;5025669;28;20050;-81
2020/12/05 18:41:07;;;;;;;26.65;14.60;;;4.00;99.90;;;;;;5028269;28;20096;-79
2020/12/05 18:43:34;;;;;;;27.23;15.52;;;4.10;99.90;;;;;;5030832;28;20050;-83
2020/12/05 19:01:34;;;;;;;27.08;15.20;;;4.10;99.90;;;;;;5885109;23;20042;-81
2020/12/05 19:04:02;;;;;;;25.73;15.65;;;4.30;99.90;;;;;;5354650;23;20054;-83
2020/12/05 19:06:29;;;;;;;26.17;15.57;;;4.30;99.90;;;;;;5019585;28;20056;-82
2020/12/05 19:35:00;;;;;;;22.53;13.93;;;4.80;99.90;;;;;;5684484;23;20085;-85
2020/12/05 19:37:27;;;;;;;23.20;14.40;;;4.90;99.90;;;;;;5400652;23;20281;-78
2020/12/05 19:47:44;;;;;;;23.05;14.23;;;5.00;99.90;;;;;;5635381;23;20274;-82
2020/12/05 19:50:17;;;;;;;25.45;15.00;;;5.10;99.90;;;;;;5018996;28;20030;-86
2020/12/05 19:52:43;;;;;;;23.73;14.82;;;4.90;99.90;;;;;;5331079;23;20085;-82
2020/12/05 19:55:10;;;;;;;23.80;14.63;;;5.00;99.90;;;;;;5018973;28;20037;-81
2020/12/05 19:57:37;;;;;;;23.42;13.60;;;5.00;99.90;;;;;;5019965;28;20058;-83
2020/12/05 20:00:06;;;;;;;21.90;13.98;;;5.00;99.80;;;;;;5017393;28;20506;-82
2020/12/05 20:02:32;;;;;;;24.23;14.15;;;5.10;99.90;;;;;;5018774;28;20031;-83
2020/12/05 20:05:21;;;;;;;23.02;14.50;;;5.00;99.90;;;;;;5017159;28;20053;-82
2020/12/05 20:07:47;;;;;;;22.88;14.15;;;5.00;99.90;;;;;;5016803;28;20031;-81
2020/12/05 20:10:23;;;;;;;26.02;14.20;;;5.00;99.90;;;;;;5012477;28;20069;-81
2020/12/05 20:12:50;;;;;;;22.70;14.05;;;5.00;99.90;;;;;;5008897;28;20056;-81
2020/12/05 20:15:16;;;;;;;23.65;14.93;;;5.00;99.80;;;;;;5010933;28;20054;-82
2020/12/05 20:17:43;;;;;;;21.50;13.05;;;5.00;99.80;;;;;;5011414;28;20046;-81
2020/12/05 20:33:08;;;;;;;23.98;14.68;;;4.90;99.90;;;;;;4975289;28;20038;-85
2020/12/05 20:35:38;;;;;;;22.90;13.93;;;4.90;99.80;;;;;;5624671;23;20029;-80
2020/12/05 20:38:05;;;;;;;26.10;14.30;;;5.00;99.80;;;;;;5886335;23;20056;-78
2020/12/05 20:40:32;;;;;;;21.13;13.45;;;4.90;99.90;;;;;;5020312;28;20038;-78
2020/12/05 21:27:03;;;;;;;24.48;14.82;;;4.50;99.90;;;;;;5795450;23;20038;-79
2020/12/05 21:29:30;;;;;;;25.52;15.60;;;4.40;99.90;;;;;;5036818;28;20053;-81
2020/12/05 21:31:56;;;;;;;25.02;15.70;;;4.60;99.90;;;;;;5034282;28;20050;-81
2020/12/05 21:34:23;;;;;;;26.50;16.42;;;4.60;99.90;;;;;;5028599;28;20463;-81
2020/12/05 21:36:50;;;;;;;26.17;16.20;;;4.70;99.90;;;;;;5031218;28;20029;-82
2020/12/05 22:02:37;;;;;;;22.40;14.68;;;5.10;99.90;;;;;;6009880;23;20027;-82
2020/12/05 22:05:04;;;;;;;23.38;14.77;;;5.00;99.90;;;;;;5038665;28;20065;-83
2020/12/05 22:07:32;;;;;;;20.92;13.38;;;5.10;99.90;;;;;;5038741;28;20037;-83
2020/12/05 22:09:58;;;;;;;21.95;14.23;;;5.00;99.90;;;;;;5038659;28;20034;-83
2020/12/05 22:12:25;;;;;;;21.27;13.27;;;5.10;99.90;;;;;;5038759;28;20038;-81
2020/12/05 22:14:52;;;;;;;22.02;13.68;;;4.90;99.90;;;;;;5038543;28;20037;-81
2020/12/05 22:17:19;;;;;;;21.13;13.93;;;5.00;99.90;;;;;;5038693;28;20065;-82
